sensor_id;sensor_type;location;lat;lon;timestamp;temperature;humidity
70947;DHT22;58605;48.700;8.760;2023-10-08T00:02:04;10.80;81.70
70947;DHT22;58605;48.700;8.760;2023-10-08T00:04:34;10.70;81.50
70947;DHT22;58605;48.700;8.760;2023-10-08T00:07:06;10.70;81.90
70947;DHT22;58605;48.700;8.760;2023-10-08T00:09:35;10.70;81.80
70947;DHT22;58605;48.700;8.760;2023-10-08T00:12:03;10.80;83.10
70947;DHT22;58605;48.700;8.760;2023-10-08T00:14:29;11.10;82.00
70947;DHT22;58605;48.700;8.760;2023-10-08T00:16:58;11.30;80.80
70947;DHT22;58605;48.700;8.760;2023-10-08T00:19:26;11.50;80.40
70947;DHT22;58605;48.700;8.760;2023-10-08T00:22:00;11.60;80.00
70947;DHT22;58605;48.700;8.760;2023-10-08T00:24:31;11.40;79.50
70947;DHT22;58605;48.700;8.760;2023-10-08T00:26:59;11.30;79.70
70947;DHT22;58605;48.700;8.760;2023-10-08T00:29:26;11.00;80.00
70947;DHT22;58605;48.700;8.760;2023-10-08T00:31:52;10.80;80.90
70947;DHT22;58605;48.700;8.760;2023-10-08T00:34:23;10.70;81.90
70947;DHT22;58605;48.700;8.760;2023-10-08T00:36:53;10.70;82.20
70947;DHT22;58605;48.700;8.760;2023-10-08T00:39:21;10.70;82.20
70947;DHT22;58605;48.700;8.760;2023-10-08T00:41:51;10.70;82.50
70947;DHT22;58605;48.700;8.760;2023-10-08T00:44:24;10.70;82.60
70947;DHT22;58605;48.700;8.760;2023-10-08T00:46:55;10.60;82.90
70947;DHT22;58605;48.700;8.760;2023-10-08T00:49:23;10.70;83.10
70947;DHT22;58605;48.700;8.760;2023-10-08T00:51:51;10.80;83.50
70947;DHT22;58605;48.700;8.760;2023-10-08T00:54:51;10.80;82.40
70947;DHT22;58605;48.700;8.760;2023-10-08T00:57:20;10.70;82.90
70947;DHT22;58605;48.700;8.760;2023-10-08T00:59:47;10.80;82.80
70947;DHT22;58605;48.700;8.760;2023-10-08T01:02:19;10.80;82.40
70947;DHT22;58605;48.700;8.760;2023-10-08T01:04:50;10.80;82.50
70947;DHT22;58605;48.700;8.760;2023-10-08T01:07:17;10.90;82.70
70947;DHT22;58605;48.700;8.760;2023-10-08T01:09:44;10.90;82.40
70947;DHT22;58605;48.700;8.760;2023-10-08T01:12:20;10.90;82.90
70947;DHT22;58605;48.700;8.760;2023-10-08T01:14:55;11.00;81.80
70947;DHT22;58605;48.700;8.760;2023-10-08T01:17:31;11.00;82.30
70947;DHT22;58605;48.700;8.760;2023-10-08T01:19:58;10.90;82.70
70947;DHT22;58605;48.700;8.760;2023-10-08T01:22:46;10.90;82.90
70947;DHT22;58605;48.700;8.760;2023-10-08T01:25:13;10.90;81.80
70947;DHT22;58605;48.700;8.760;2023-10-08T01:27:55;10.90;81.80
70947;DHT22;58605;48.700;8.760;2023-10-08T01:30:21;10.90;82.00
70947;DHT22;58605;48.700;8.760;2023-10-08T01:32:47;10.90;82.30
70947;DHT22;58605;48.700;8.760;2023-10-08T01:35:14;11.00;81.90
70947;DHT22;58605;48.700;8.760;2023-10-08T01:37:50;11.00;81.40
70947;DHT22;58605;48.700;8.760;2023-10-08T01:40:17;11.00;81.00
70947;DHT22;58605;48.700;8.760;2023-10-08T01:42:43;10.90;81.30
70947;DHT22;58605;48.700;8.760;2023-10-08T01:45:10;10.90;81.60
70947;DHT22;58605;48.700;8.760;2023-10-08T01:47:43;11.00;81.30
70947;DHT22;58605;48.700;8.760;2023-10-08T01:50:10;11.00;80.90
70947;DHT22;58605;48.700;8.760;2023-10-08T01:52:47;11.00;80.90
70947;DHT22;58605;48.700;8.760;2023-10-08T01:55:14;11.10;80.80
70947;DHT22;58605;48.700;8.760;2023-10-08T01:57:44;11.20;80.40
70947;DHT22;58605;48.700;8.760;2023-10-08T02:03:32;11.00;80.20
70947;DHT22;58605;48.700;8.760;2023-10-08T02:05:59;11.10;80.20
70947;DHT22;58605;48.700;8.760;2023-10-08T02:08:25;11.10;80.00
70947;DHT22;58605;48.700;8.760;2023-10-08T02:10:59;11.10;80.10
70947;DHT22;58605;48.700;8.760;2023-10-08T02:13:25;11.10;80.00
70947;DHT22;58605;48.700;8.760;2023-10-08T02:15:52;11.10;80.60
70947;DHT22;58605;48.700;8.760;2023-10-08T02:18:18;11.10;80.50
70947;DHT22;58605;48.700;8.760;2023-10-08T02:20:45;11.00;80.60
70947;DHT22;58605;48.700;8.760;2023-10-08T02:23:11;10.90;80.50
70947;DHT22;58605;48.700;8.760;2023-10-08T02:25:38;10.80;80.50
70947;DHT22;58605;48.700;8.760;2023-10-08T02:28:08;10.70;81.00
70947;DHT22;58605;48.700;8.760;2023-10-08T02:30:34;10.70;81.50
70947;DHT22;58605;48.700;8.760;2023-10-08T02:33:02;10.70;81.70
70947;DHT22;58605;48.700;8.760;2023-10-08T02:35:28;10.60;81.70
70947;DHT22;58605;48.700;8.760;2023-10-08T02:37:54;10.60;82.10
70947;DHT22;58605;48.700;8.760;2023-10-08T02:40:20;10.60;82.10
70947;DHT22;58605;48.700;8.760;2023-10-08T02:42:53;10.60;82.00
70947;DHT22;58605;48.700;8.760;2023-10-08T02:45:26;10.60;81.80
70947;DHT22;58605;48.700;8.760;2023-10-08T02:47:52;10.60;81.90
70947;DHT22;58605;48.700;8.760;2023-10-08T02:50:19;10.50;81.80
70947;DHT22;58605;48.700;8.760;2023-10-08T02:52:45;10.50;82.20
70947;DHT22;58605;48.700;8.760;2023-10-08T02:55:11;10.50;82.90
70947;DHT22;58605;48.700;8.760;2023-10-08T02:57:49;10.60;82.30
70947;DHT22;58605;48.700;8.760;2023-10-08T03:00:16;10.60;82.70
70947;DHT22;58605;48.700;8.760;2023-10-08T03:02:47;10.70;82.40
70947;DHT22;58605;48.700;8.760;2023-10-08T03:05:13;10.70;82.20
70947;DHT22;58605;48.700;8.760;2023-10-08T03:07:42;10.70;81.90
70947;DHT22;58605;48.700;8.760;2023-10-08T03:10:09;10.60;81.70
70947;DHT22;58605;48.700;8.760;2023-10-08T03:12:45;10.60;81.60
70947;DHT22;58605;48.700;8.760;2023-10-08T03:15:15;10.60;81.70
70947;DHT22;58605;48.700;8.760;2023-10-08T03:17:58;10.70;81.70
70947;DHT22;58605;48.700;8.760;2023-10-08T03:20:34;10.60;82.30
70947;DHT22;58605;48.700;8.760;2023-10-08T03:23:04;10.70;83.00
70947;DHT22;58605;48.700;8.760;2023-10-08T03:25:52;10.70;81.90
70947;DHT22;58605;48.700;8.760;2023-10-08T03:28:24;10.80;81.90
70947;DHT22;58605;48.700;8.760;2023-10-08T03:30:51;10.80;81.90
70947;DHT22;58605;48.700;8.760;2023-10-08T03:33:19;10.90;81.80
70947;DHT22;58605;48.700;8.760;2023-10-08T03:35:49;10.90;82.00
70947;DHT22;58605;48.700;8.760;2023-10-08T03:38:19;10.80;81.80
70947;DHT22;58605;48.700;8.760;2023-10-08T03:40:54;10.80;81.80
70947;DHT22;58605;48.700;8.760;2023-10-08T03:43:29;10.80;82.50
70947;DHT22;58605;48.700;8.760;2023-10-08T03:46:00;10.70;82.30
70947;DHT22;58605;48.700;8.760;2023-10-08T03:48:33;10.70;82.30
70947;DHT22;58605;48.700;8.760;2023-10-08T03:51:04;10.60;82.80
70947;DHT22;58605;48.700;8.760;2023-10-08T03:53:37;10.50;82.40
70947;DHT22;58605;48.700;8.760;2023-10-08T03:56:23;10.40;83.00
70947;DHT22;58605;48.700;8.760;2023-10-08T03:58:50;10.50;83.00
70947;DHT22;58605;48.700;8.760;2023-10-08T04:01:20;10.40;82.80
70947;DHT22;58605;48.700;8.760;2023-10-08T04:03:48;10.50;82.90
70947;DHT22;58605;48.700;8.760;2023-10-08T04:06:17;10.50;83.00
70947;DHT22;58605;48.700;8.760;2023-10-08T04:08:48;10.40;82.40
70947;DHT22;58605;48.700;8.760;2023-10-08T04:11:32;10.40;83.00
70947;DHT22;58605;48.700;8.760;2023-10-08T04:14:01;10.30;83.30
70947;DHT22;58605;48.700;8.760;2023-10-08T04:16:28;10.30;83.10
70947;DHT22;58605;48.700;8.760;2023-10-08T04:18:56;10.20;83.10
70947;DHT22;58605;48.700;8.760;2023-10-08T04:21:22;10.10;83.10
70947;DHT22;58605;48.700;8.760;2023-10-08T04:23:53;10.20;84.30
70947;DHT22;58605;48.700;8.760;2023-10-08T04:26:19;10.20;84.20
70947;DHT22;58605;48.700;8.760;2023-10-08T04:28:50;10.30;84.20
70947;DHT22;58605;48.700;8.760;2023-10-08T04:31:19;10.40;84.30
70947;DHT22;58605;48.700;8.760;2023-10-08T04:33:50;10.50;83.80
70947;DHT22;58605;48.700;8.760;2023-10-08T04:36:18;10.80;83.70
70947;DHT22;58605;48.700;8.760;2023-10-08T04:38:46;11.00;83.10
70947;DHT22;58605;48.700;8.760;2023-10-08T04:41:14;10.80;82.30
70947;DHT22;58605;48.700;8.760;2023-10-08T04:43:45;10.80;82.60
70947;DHT22;58605;48.700;8.760;2023-10-08T04:46:11;10.80;82.60
70947;DHT22;58605;48.700;8.760;2023-10-08T04:49:05;10.80;83.20
70947;DHT22;58605;48.700;8.760;2023-10-08T04:51:36;10.80;82.70
70947;DHT22;58605;48.700;8.760;2023-10-08T04:54:10;10.70;83.10
70947;DHT22;58605;48.700;8.760;2023-10-08T04:56:42;10.70;83.60
70947;DHT22;58605;48.700;8.760;2023-10-08T04:59:08;10.70;83.80
70947;DHT22;58605;48.700;8.760;2023-10-08T05:01:37;10.70;83.80
70947;DHT22;58605;48.700;8.760;2023-10-08T05:04:14;10.80;84.00
70947;DHT22;58605;48.700;8.760;2023-10-08T05:06:53;10.90;83.80
70947;DHT22;58605;48.700;8.760;2023-10-08T05:09:38;10.90;84.00
70947;DHT22;58605;48.700;8.760;2023-10-08T05:12:27;11.00;83.10
70947;DHT22;58605;48.700;8.760;2023-10-08T05:14:59;11.00;83.60
70947;DHT22;58605;48.700;8.760;2023-10-08T05:17:41;10.90;84.00
70947;DHT22;58605;48.700;8.760;2023-10-08T05:20:24;11.00;84.40
70947;DHT22;58605;48.700;8.760;2023-10-08T05:23:11;11.00;83.70
70947;DHT22;58605;48.700;8.760;2023-10-08T05:25:51;11.10;83.10
70947;DHT22;58605;48.700;8.760;2023-10-08T05:28:33;11.10;83.50
70947;DHT22;58605;48.700;8.760;2023-10-08T05:31:07;11.10;83.50
70947;DHT22;58605;48.700;8.760;2023-10-08T05:33:39;11.10;83.20
70947;DHT22;58605;48.700;8.760;2023-10-08T05:36:24;11.20;82.70
70947;DHT22;58605;48.700;8.760;2023-10-08T05:39:10;11.20;82.90
70947;DHT22;58605;48.700;8.760;2023-10-08T05:41:55;11.10;82.90
70947;DHT22;58605;48.700;8.760;2023-10-08T05:44:39;11.10;83.00
70947;DHT22;58605;48.700;8.760;2023-10-08T05:47:05;11.10;82.70
70947;DHT22;58605;48.700;8.760;2023-10-08T05:49:50;11.20;83.10
70947;DHT22;58605;48.700;8.760;2023-10-08T05:52:34;11.30;82.60
70947;DHT22;58605;48.700;8.760;2023-10-08T05:55:17;11.20;82.20
70947;DHT22;58605;48.700;8.760;2023-10-08T05:57:52;11.20;82.60
70947;DHT22;58605;48.700;8.760;2023-10-08T06:00:28;11.20;83.20
70947;DHT22;58605;48.700;8.760;2023-10-08T06:03:00;11.30;82.50
70947;DHT22;58605;48.700;8.760;2023-10-08T06:05:36;11.40;82.20
70947;DHT22;58605;48.700;8.760;2023-10-08T06:08:09;11.30;82.00
70947;DHT22;58605;48.700;8.760;2023-10-08T06:10:48;11.30;83.10
70947;DHT22;58605;48.700;8.760;2023-10-08T06:13:37;11.20;83.20
70947;DHT22;58605;48.700;8.760;2023-10-08T06:16:11;11.20;83.30
70947;DHT22;58605;48.700;8.760;2023-10-08T06:18:56;11.20;83.80
70947;DHT22;58605;48.700;8.760;2023-10-08T06:21:22;11.30;84.50
70947;DHT22;58605;48.700;8.760;2023-10-08T06:23:49;11.50;84.10
70947;DHT22;58605;48.700;8.760;2023-10-08T06:26:17;11.60;84.00
70947;DHT22;58605;48.700;8.760;2023-10-08T06:28:46;11.60;83.50
70947;DHT22;58605;48.700;8.760;2023-10-08T06:31:12;11.80;83.70
70947;DHT22;58605;48.700;8.760;2023-10-08T06:33:43;11.90;83.40
70947;DHT22;58605;48.700;8.760;2023-10-08T06:36:09;12.00;82.30
70947;DHT22;58605;48.700;8.760;2023-10-08T06:38:40;12.00;82.20
70947;DHT22;58605;48.700;8.760;2023-10-08T06:41:07;12.10;83.00
70947;DHT22;58605;48.700;8.760;2023-10-08T06:43:41;12.20;83.60
70947;DHT22;58605;48.700;8.760;2023-10-08T06:46:29;12.30;84.00
70947;DHT22;58605;48.700;8.760;2023-10-08T06:48:58;12.40;82.40
70947;DHT22;58605;48.700;8.760;2023-10-08T06:51:24;12.40;82.20
70947;DHT22;58605;48.700;8.760;2023-10-08T06:53:52;12.60;81.20
70947;DHT22;58605;48.700;8.760;2023-10-08T06:56:19;12.80;82.00
70947;DHT22;58605;48.700;8.760;2023-10-08T06:58:47;12.90;80.90
70947;DHT22;58605;48.700;8.760;2023-10-08T07:01:14;13.00;81.90
70947;DHT22;58605;48.700;8.760;2023-10-08T07:03:46;13.10;81.90
70947;DHT22;58605;48.700;8.760;2023-10-08T07:06:15;13.30;82.10
70947;DHT22;58605;48.700;8.760;2023-10-08T07:09:01;13.40;82.10
70947;DHT22;58605;48.700;8.760;2023-10-08T07:11:31;13.50;82.10
70947;DHT22;58605;48.700;8.760;2023-10-08T07:14:02;13.70;83.40
70947;DHT22;58605;48.700;8.760;2023-10-08T07:16:29;13.70;81.70
70947;DHT22;58605;48.700;8.760;2023-10-08T07:18:56;13.80;81.80
70947;DHT22;58605;48.700;8.760;2023-10-08T07:21:27;13.80;81.10
70947;DHT22;58605;48.700;8.760;2023-10-08T07:24:05;13.80;82.00
70947;DHT22;58605;48.700;8.760;2023-10-08T07:26:35;13.70;80.30
70947;DHT22;58605;48.700;8.760;2023-10-08T07:29:07;13.60;79.40
70947;DHT22;58605;48.700;8.760;2023-10-08T07:31:37;13.50;80.20
70947;DHT22;58605;48.700;8.760;2023-10-08T07:34:15;13.40;79.30
70947;DHT22;58605;48.700;8.760;2023-10-08T07:36:42;13.40;79.30
70947;DHT22;58605;48.700;8.760;2023-10-08T07:39:09;13.70;79.60
70947;DHT22;58605;48.700;8.760;2023-10-08T07:41:49;14.10;78.50
70947;DHT22;58605;48.700;8.760;2023-10-08T07:44:18;14.20;77.50
70947;DHT22;58605;48.700;8.760;2023-10-08T07:46:48;14.10;76.20
70947;DHT22;58605;48.700;8.760;2023-10-08T07:49:15;13.80;75.60
70947;DHT22;58605;48.700;8.760;2023-10-08T07:51:41;14.00;78.00
70947;DHT22;58605;48.700;8.760;2023-10-08T07:54:07;13.80;75.10
70947;DHT22;58605;48.700;8.760;2023-10-08T07:56:37;13.60;75.40
70947;DHT22;58605;48.700;8.760;2023-10-08T07:59:03;13.30;75.50
70947;DHT22;58605;48.700;8.760;2023-10-08T08:01:37;13.20;75.90
70947;DHT22;58605;48.700;8.760;2023-10-08T08:04:03;13.10;76.20
70947;DHT22;58605;48.700;8.760;2023-10-08T08:06:29;13.00;76.30
70947;DHT22;58605;48.700;8.760;2023-10-08T08:08:59;12.90;76.60
70947;DHT22;58605;48.700;8.760;2023-10-08T08:11:25;12.90;76.70
70947;DHT22;58605;48.700;8.760;2023-10-08T08:13:52;12.80;76.70
70947;DHT22;58605;48.700;8.760;2023-10-08T08:16:18;12.80;76.90
70947;DHT22;58605;48.700;8.760;2023-10-08T08:18:48;12.70;76.90
70947;DHT22;58605;48.700;8.760;2023-10-08T08:21:16;12.70;77.10
70947;DHT22;58605;48.700;8.760;2023-10-08T08:23:43;12.70;77.00
70947;DHT22;58605;48.700;8.760;2023-10-08T08:26:16;12.70;77.10
70947;DHT22;58605;48.700;8.760;2023-10-08T08:29:05;12.70;77.20
70947;DHT22;58605;48.700;8.760;2023-10-08T08:31:35;12.70;77.20
70947;DHT22;58605;48.700;8.760;2023-10-08T08:34:03;12.70;77.40
70947;DHT22;58605;48.700;8.760;2023-10-08T08:36:34;12.60;77.10
70947;DHT22;58605;48.700;8.760;2023-10-08T08:39:05;12.60;77.40
70947;DHT22;58605;48.700;8.760;2023-10-08T08:41:37;12.60;77.60
70947;DHT22;58605;48.700;8.760;2023-10-08T08:44:04;12.60;77.90
70947;DHT22;58605;48.700;8.760;2023-10-08T08:46:33;12.60;77.80
70947;DHT22;58605;48.700;8.760;2023-10-08T08:49:03;12.60;77.80
70947;DHT22;58605;48.700;8.760;2023-10-08T08:51:34;12.60;77.90
70947;DHT22;58605;48.700;8.760;2023-10-08T08:54:01;12.70;78.20
70947;DHT22;58605;48.700;8.760;2023-10-08T08:56:32;12.70;78.30
70947;DHT22;58605;48.700;8.760;2023-10-08T08:58:59;12.70;78.50
70947;DHT22;58605;48.700;8.760;2023-10-08T09:01:27;12.60;78.60
70947;DHT22;58605;48.700;8.760;2023-10-08T09:03:59;12.60;78.70
70947;DHT22;58605;48.700;8.760;2023-10-08T09:06:28;12.70;79.00
70947;DHT22;58605;48.700;8.760;2023-10-08T09:08:54;12.70;79.20
70947;DHT22;58605;48.700;8.760;2023-10-08T09:11:39;12.70;79.30
70947;DHT22;58605;48.700;8.760;2023-10-08T09:14:08;12.70;79.50
70947;DHT22;58605;48.700;8.760;2023-10-08T09:16:36;12.70;79.80
70947;DHT22;58605;48.700;8.760;2023-10-08T09:19:03;12.70;80.00
70947;DHT22;58605;48.700;8.760;2023-10-08T09:21:32;13.00;81.00
70947;DHT22;58605;48.700;8.760;2023-10-08T09:23:58;13.10;78.90
70947;DHT22;58605;48.700;8.760;2023-10-08T09:26:31;13.40;77.60
70947;DHT22;58605;48.700;8.760;2023-10-08T09:28:58;13.40;78.10
70947;DHT22;58605;48.700;8.760;2023-10-08T09:31:24;13.40;78.00
70947;DHT22;58605;48.700;8.760;2023-10-08T09:33:54;13.20;78.50
70947;DHT22;58605;48.700;8.760;2023-10-08T09:36:21;13.10;78.80
70947;DHT22;58605;48.700;8.760;2023-10-08T09:38:59;13.00;79.10
70947;DHT22;58605;48.700;8.760;2023-10-08T09:41:31;13.00;79.40
70947;DHT22;58605;48.700;8.760;2023-10-08T09:43:58;13.00;79.60
70947;DHT22;58605;48.700;8.760;2023-10-08T09:46:29;12.90;79.60
70947;DHT22;58605;48.700;8.760;2023-10-08T09:49:05;12.90;79.80
70947;DHT22;58605;48.700;8.760;2023-10-08T09:51:35;12.90;79.90
70947;DHT22;58605;48.700;8.760;2023-10-08T09:54:10;12.90;80.00
70947;DHT22;58605;48.700;8.760;2023-10-08T09:56:40;13.00;80.30
70947;DHT22;58605;48.700;8.760;2023-10-08T09:59:09;13.00;79.90
70947;DHT22;58605;48.700;8.760;2023-10-08T10:01:37;13.00;79.80
70947;DHT22;58605;48.700;8.760;2023-10-08T10:04:06;13.00;79.90
70947;DHT22;58605;48.700;8.760;2023-10-08T10:06:34;13.40;78.40
70947;DHT22;58605;48.700;8.760;2023-10-08T10:09:02;13.60;76.20
70947;DHT22;58605;48.700;8.760;2023-10-08T10:11:35;13.50;77.50
70947;DHT22;58605;48.700;8.760;2023-10-08T10:14:03;13.30;78.20
70947;DHT22;58605;48.700;8.760;2023-10-08T10:16:32;13.20;78.40
70947;DHT22;58605;48.700;8.760;2023-10-08T10:19:02;13.60;76.50
70947;DHT22;58605;48.700;8.760;2023-10-08T10:21:30;13.40;77.50
70947;DHT22;58605;48.700;8.760;2023-10-08T10:23:57;13.70;75.20
70947;DHT22;58605;48.700;8.760;2023-10-08T10:26:25;13.50;76.40
70947;DHT22;58605;48.700;8.760;2023-10-08T10:29:21;13.40;77.00
70947;DHT22;58605;48.700;8.760;2023-10-08T10:31:49;13.20;77.40
70947;DHT22;58605;48.700;8.760;2023-10-08T10:34:20;13.20;77.40
70947;DHT22;58605;48.700;8.760;2023-10-08T10:36:48;13.10;77.40
70947;DHT22;58605;48.700;8.760;2023-10-08T10:39:16;13.10;77.50
70947;DHT22;58605;48.700;8.760;2023-10-08T10:41:43;13.10;77.50
70947;DHT22;58605;48.700;8.760;2023-10-08T10:44:10;13.10;77.40
70947;DHT22;58605;48.700;8.760;2023-10-08T10:46:38;13.10;77.20
70947;DHT22;58605;48.700;8.760;2023-10-08T10:49:08;13.10;77.20
70947;DHT22;58605;48.700;8.760;2023-10-08T10:51:57;13.10;77.20
70947;DHT22;58605;48.700;8.760;2023-10-08T10:54:24;13.10;77.20
70947;DHT22;58605;48.700;8.760;2023-10-08T10:56:50;13.10;77.10
70947;DHT22;58605;48.700;8.760;2023-10-08T10:59:35;13.30;75.70
70947;DHT22;58605;48.700;8.760;2023-10-08T11:02:05;13.30;76.40
70947;DHT22;58605;48.700;8.760;2023-10-08T11:04:35;13.30;76.60
70947;DHT22;58605;48.700;8.760;2023-10-08T11:07:21;13.30;76.00
70947;DHT22;58605;48.700;8.760;2023-10-08T11:09:47;13.50;75.40
70947;DHT22;58605;48.700;8.760;2023-10-08T11:12:14;14.50;68.60
70947;DHT22;58605;48.700;8.760;2023-10-08T11:14:46;14.90;68.60
70947;DHT22;58605;48.700;8.760;2023-10-08T11:17:16;14.40;71.20
70947;DHT22;58605;48.700;8.760;2023-10-08T11:19:42;15.70;66.30
70947;DHT22;58605;48.700;8.760;2023-10-08T11:22:11;15.80;65.10
70947;DHT22;58605;48.700;8.760;2023-10-08T11:24:42;17.30;59.00
70947;DHT22;58605;48.700;8.760;2023-10-08T11:27:10;18.70;56.60
70947;DHT22;58605;48.700;8.760;2023-10-08T11:29:44;19.50;55.30
70947;DHT22;58605;48.700;8.760;2023-10-08T11:32:14;20.50;49.80
70947;DHT22;58605;48.700;8.760;2023-10-08T11:34:46;19.20;54.90
70947;DHT22;58605;48.700;8.760;2023-10-08T11:37:16;19.90;51.10
70947;DHT22;58605;48.700;8.760;2023-10-08T11:39:51;20.70;50.40
70947;DHT22;58605;48.700;8.760;2023-10-08T11:42:19;20.60;50.30
70947;DHT22;58605;48.700;8.760;2023-10-08T11:44:57;19.10;54.50
70947;DHT22;58605;48.700;8.760;2023-10-08T11:47:45;17.80;57.90
70947;DHT22;58605;48.700;8.760;2023-10-08T11:50:11;16.80;60.90
70947;DHT22;58605;48.700;8.760;2023-10-08T11:52:42;16.10;62.90
70947;DHT22;58605;48.700;8.760;2023-10-08T11:55:08;15.80;64.50
70947;DHT22;58605;48.700;8.760;2023-10-08T11:57:35;15.60;65.10
70947;DHT22;58605;48.700;8.760;2023-10-08T12:00:02;15.40;65.70
70947;DHT22;58605;48.700;8.760;2023-10-08T12:02:44;16.80;61.30
70947;DHT22;58605;48.700;8.760;2023-10-08T12:05:10;16.50;61.60
70947;DHT22;58605;48.700;8.760;2023-10-08T12:07:46;16.30;62.10
70947;DHT22;58605;48.700;8.760;2023-10-08T12:10:23;16.20;62.60
70947;DHT22;58605;48.700;8.760;2023-10-08T12:12:50;15.60;64.60
70947;DHT22;58605;48.700;8.760;2023-10-08T12:15:19;15.10;66.50
70947;DHT22;58605;48.700;8.760;2023-10-08T12:17:50;14.80;67.60
70947;DHT22;58605;48.700;8.760;2023-10-08T12:20:35;14.90;66.60
70947;DHT22;58605;48.700;8.760;2023-10-08T12:23:03;14.90;67.00
70947;DHT22;58605;48.700;8.760;2023-10-08T12:25:30;14.60;68.10
70947;DHT22;58605;48.700;8.760;2023-10-08T12:27:59;14.30;69.00
70947;DHT22;58605;48.700;8.760;2023-10-08T12:30:28;14.10;69.80
70947;DHT22;58605;48.700;8.760;2023-10-08T12:32:58;14.10;70.10
70947;DHT22;58605;48.700;8.760;2023-10-08T12:35:26;14.00;70.30
70947;DHT22;58605;48.700;8.760;2023-10-08T12:37:52;14.00;70.30
70947;DHT22;58605;48.700;8.760;2023-10-08T12:40:19;13.90;71.00
70947;DHT22;58605;48.700;8.760;2023-10-08T12:42:48;13.90;70.90
70947;DHT22;58605;48.700;8.760;2023-10-08T12:45:16;13.90;71.00
70947;DHT22;58605;48.700;8.760;2023-10-08T12:47:47;13.90;71.40
70947;DHT22;58605;48.700;8.760;2023-10-08T12:50:17;13.80;71.60
70947;DHT22;58605;48.700;8.760;2023-10-08T12:52:49;13.80;71.90
70947;DHT22;58605;48.700;8.760;2023-10-08T12:55:21;13.80;72.10
70947;DHT22;58605;48.700;8.760;2023-10-08T12:57:51;13.80;72.20
70947;DHT22;58605;48.700;8.760;2023-10-08T13:00:22;13.80;72.40
70947;DHT22;58605;48.700;8.760;2023-10-08T13:02:49;13.80;72.40
70947;DHT22;58605;48.700;8.760;2023-10-08T13:05:21;13.80;72.70
70947;DHT22;58605;48.700;8.760;2023-10-08T13:07:54;13.80;72.60
70947;DHT22;58605;48.700;8.760;2023-10-08T13:10:21;13.80;72.80
70947;DHT22;58605;48.700;8.760;2023-10-08T13:12:48;13.80;72.90
70947;DHT22;58605;48.700;8.760;2023-10-08T13:15:14;13.80;73.10
70947;DHT22;58605;48.700;8.760;2023-10-08T13:17:40;13.90;73.10
70947;DHT22;58605;48.700;8.760;2023-10-08T13:20:12;13.90;73.10
70947;DHT22;58605;48.700;8.760;2023-10-08T13:22:40;13.90;73.00
70947;DHT22;58605;48.700;8.760;2023-10-08T13:25:06;14.00;73.00
70947;DHT22;58605;48.700;8.760;2023-10-08T13:27:33;14.30;71.00
70947;DHT22;58605;48.700;8.760;2023-10-08T13:29:59;14.30;71.80
70947;DHT22;58605;48.700;8.760;2023-10-08T13:32:30;14.20;72.30
70947;DHT22;58605;48.700;8.760;2023-10-08T13:34:56;14.80;70.10
70947;DHT22;58605;48.700;8.760;2023-10-08T13:37:23;14.60;70.80
70947;DHT22;58605;48.700;8.760;2023-10-08T13:39:51;14.40;71.60
70947;DHT22;58605;48.700;8.760;2023-10-08T13:42:18;14.30;71.80
70947;DHT22;58605;48.700;8.760;2023-10-08T13:44:46;14.30;72.00
70947;DHT22;58605;48.700;8.760;2023-10-08T13:47:12;14.30;72.00
70947;DHT22;58605;48.700;8.760;2023-10-08T13:49:41;14.30;72.20
70947;DHT22;58605;48.700;8.760;2023-10-08T13:52:08;14.50;71.00
70947;DHT22;58605;48.700;8.760;2023-10-08T13:54:34;14.50;71.50
70947;DHT22;58605;48.700;8.760;2023-10-08T13:57:07;14.40;71.80
70947;DHT22;58605;48.700;8.760;2023-10-08T13:59:34;14.40;71.90
70947;DHT22;58605;48.700;8.760;2023-10-08T14:02:01;14.60;71.80
70947;DHT22;58605;48.700;8.760;2023-10-08T14:04:40;14.50;71.80
70947;DHT22;58605;48.700;8.760;2023-10-08T14:07:09;14.40;71.90
70947;DHT22;58605;48.700;8.760;2023-10-08T14:09:37;14.40;72.00
70947;DHT22;58605;48.700;8.760;2023-10-08T14:12:04;14.30;72.10
70947;DHT22;58605;48.700;8.760;2023-10-08T14:14:33;14.30;72.50
70947;DHT22;58605;48.700;8.760;2023-10-08T14:17:01;14.30;72.70
70947;DHT22;58605;48.700;8.760;2023-10-08T14:19:36;14.30;72.50
70947;DHT22;58605;48.700;8.760;2023-10-08T14:22:05;14.40;72.10
70947;DHT22;58605;48.700;8.760;2023-10-08T14:24:34;14.50;71.80
70947;DHT22;58605;48.700;8.760;2023-10-08T14:27:03;14.50;71.80
70947;DHT22;58605;48.700;8.760;2023-10-08T14:29:37;14.50;71.80
70947;DHT22;58605;48.700;8.760;2023-10-08T14:32:06;14.40;72.90
70947;DHT22;58605;48.700;8.760;2023-10-08T14:34:35;14.40;72.40
70947;DHT22;58605;48.700;8.760;2023-10-08T14:37:13;14.30;72.40
70947;DHT22;58605;48.700;8.760;2023-10-08T14:39:57;14.30;72.50
70947;DHT22;58605;48.700;8.760;2023-10-08T14:42:42;14.50;71.40
70947;DHT22;58605;48.700;8.760;2023-10-08T14:45:31;14.70;71.10
70947;DHT22;58605;48.700;8.760;2023-10-08T14:47:59;14.60;71.30
70947;DHT22;58605;48.700;8.760;2023-10-08T14:50:26;14.50;71.80
70947;DHT22;58605;48.700;8.760;2023-10-08T14:52:58;14.40;72.00
70947;DHT22;58605;48.700;8.760;2023-10-08T14:55:30;14.40;72.20
70947;DHT22;58605;48.700;8.760;2023-10-08T14:57:57;14.40;72.20
70947;DHT22;58605;48.700;8.760;2023-10-08T15:00:23;14.40;71.10
70947;DHT22;58605;48.700;8.760;2023-10-08T15:02:54;14.60;71.40
70947;DHT22;58605;48.700;8.760;2023-10-08T15:05:20;14.70;71.20
70947;DHT22;58605;48.700;8.760;2023-10-08T15:07:47;14.70;71.00
70947;DHT22;58605;48.700;8.760;2023-10-08T15:10:15;14.70;71.10
70947;DHT22;58605;48.700;8.760;2023-10-08T15:12:41;14.60;71.60
70947;DHT22;58605;48.700;8.760;2023-10-08T15:15:08;14.60;71.70
70947;DHT22;58605;48.700;8.760;2023-10-08T15:17:41;14.60;71.40
70947;DHT22;58605;48.700;8.760;2023-10-08T15:20:10;14.60;71.50
70947;DHT22;58605;48.700;8.760;2023-10-08T15:22:47;14.60;71.70
70947;DHT22;58605;48.700;8.760;2023-10-08T15:25:14;14.50;71.80
70947;DHT22;58605;48.700;8.760;2023-10-08T15:27:43;14.50;72.10
70947;DHT22;58605;48.700;8.760;2023-10-08T15:30:14;14.50;72.20
70947;DHT22;58605;48.700;8.760;2023-10-08T15:32:42;14.50;72.30
70947;DHT22;58605;48.700;8.760;2023-10-08T15:35:15;14.40;72.30
70947;DHT22;58605;48.700;8.760;2023-10-08T15:37:45;14.50;72.40
70947;DHT22;58605;48.700;8.760;2023-10-08T15:40:12;14.50;72.50
70947;DHT22;58605;48.700;8.760;2023-10-08T15:42:47;14.50;72.60
70947;DHT22;58605;48.700;8.760;2023-10-08T15:45:14;14.50;72.60
70947;DHT22;58605;48.700;8.760;2023-10-08T15:47:40;14.50;72.60
70947;DHT22;58605;48.700;8.760;2023-10-08T15:50:07;14.50;72.70
70947;DHT22;58605;48.700;8.760;2023-10-08T15:52:38;14.50;72.70
70947;DHT22;58605;48.700;8.760;2023-10-08T15:55:05;14.50;72.80
70947;DHT22;58605;48.700;8.760;2023-10-08T15:57:31;14.50;72.80